sensor_id;sensor_type;location;lat;lon;timestamp;temperature;humidity
26164;DHT22;13914;48.178;11.716;2023-07-16T00:01:57;25.80;1.00
26164;DHT22;13914;48.178;11.716;2023-07-16T00:04:23;25.80;1.10
26164;DHT22;13914;48.178;11.716;2023-07-16T00:06:48;25.70;1.00
26164;DHT22;13914;48.178;11.716;2023-07-16T00:09:14;25.70;1.00
26164;DHT22;13914;48.178;11.716;2023-07-16T00:11:40;25.60;1.60
26164;DHT22;13914;48.178;11.716;2023-07-16T00:14:06;25.60;1.30
26164;DHT22;13914;48.178;11.716;2023-07-16T00:16:31;25.50;1.70
26164;DHT22;13914;48.178;11.716;2023-07-16T00:18:57;25.50;1.70
26164;DHT22;13914;48.178;11.716;2023-07-16T00:21:23;25.40;1.50
26164;DHT22;13914;48.178;11.716;2023-07-16T00:23:49;25.40;1.60
26164;DHT22;13914;48.178;11.716;2023-07-16T00:26:15;25.40;1.80
26164;DHT22;13914;48.178;11.716;2023-07-16T00:28:41;25.30;1.60
26164;DHT22;13914;48.178;11.716;2023-07-16T00:31:07;25.30;2.30
26164;DHT22;13914;48.178;11.716;2023-07-16T00:33:32;25.20;2.00
26164;DHT22;13914;48.178;11.716;2023-07-16T00:35:58;25.20;2.20
26164;DHT22;13914;48.178;11.716;2023-07-16T00:38:24;25.20;1.40
26164;DHT22;13914;48.178;11.716;2023-07-16T00:40:50;25.10;1.00
26164;DHT22;13914;48.178;11.716;2023-07-16T00:43:15;25.10;1.10
26164;DHT22;13914;48.178;11.716;2023-07-16T00:45:41;25.10;1.20
26164;DHT22;13914;48.178;11.716;2023-07-16T00:48:07;25.00;1.00
26164;DHT22;13914;48.178;11.716;2023-07-16T00:50:33;25.00;1.00
26164;DHT22;13914;48.178;11.716;2023-07-16T00:53:03;25.00;1.40
26164;DHT22;13914;48.178;11.716;2023-07-16T00:55:29;24.90;1.00
26164;DHT22;13914;48.178;11.716;2023-07-16T00:57:55;24.90;1.00
26164;DHT22;13914;48.178;11.716;2023-07-16T01:00:33;24.90;1.00
26164;DHT22;13914;48.178;11.716;2023-07-16T01:03:01;24.90;1.00
26164;DHT22;13914;48.178;11.716;2023-07-16T01:05:42;24.80;1.00
26164;DHT22;13914;48.178;11.716;2023-07-16T01:08:12;24.80;1.00
26164;DHT22;13914;48.178;11.716;2023-07-16T01:10:38;24.80;1.00
26164;DHT22;13914;48.178;11.716;2023-07-16T01:13:05;24.70;1.00
26164;DHT22;13914;48.178;11.716;2023-07-16T01:15:30;24.70;1.00
26164;DHT22;13914;48.178;11.716;2023-07-16T01:17:56;24.70;1.10
26164;DHT22;13914;48.178;11.716;2023-07-16T01:20:22;24.60;1.50
26164;DHT22;13914;48.178;11.716;2023-07-16T01:25:48;24.50;1.00
26164;DHT22;13914;48.178;11.716;2023-07-16T01:31:15;24.50;1.30
26164;DHT22;13914;48.178;11.716;2023-07-16T01:33:42;24.40;1.40
26164;DHT22;13914;48.178;11.716;2023-07-16T01:36:08;24.30;1.50
26164;DHT22;13914;48.178;11.716;2023-07-16T01:38:35;24.30;2.80
26164;DHT22;13914;48.178;11.716;2023-07-16T01:41:01;24.30;2.70
26164;DHT22;13914;48.178;11.716;2023-07-16T01:43:27;24.20;1.80
26164;DHT22;13914;48.178;11.716;2023-07-16T01:45:52;24.20;2.60
26164;DHT22;13914;48.178;11.716;2023-07-16T01:48:51;24.10;2.30
26164;DHT22;13914;48.178;11.716;2023-07-16T01:51:10;24.10;2.80
26164;DHT22;13914;48.178;11.716;2023-07-16T01:53:39;24.00;2.70
26164;DHT22;13914;48.178;11.716;2023-07-16T01:56:06;23.90;3.60
26164;DHT22;13914;48.178;11.716;2023-07-16T01:58:31;23.90;3.80
26164;DHT22;13914;48.178;11.716;2023-07-16T02:00:57;23.90;3.50
26164;DHT22;13914;48.178;11.716;2023-07-16T02:03:23;23.80;3.90
26164;DHT22;13914;48.178;11.716;2023-07-16T02:05:48;23.80;3.00
26164;DHT22;13914;48.178;11.716;2023-07-16T02:08:14;23.80;2.90
26164;DHT22;13914;48.178;11.716;2023-07-16T02:10:40;23.80;2.90
26164;DHT22;13914;48.178;11.716;2023-07-16T02:13:05;23.80;2.80
26164;DHT22;13914;48.178;11.716;2023-07-16T02:15:31;23.80;3.00
26164;DHT22;13914;48.178;11.716;2023-07-16T02:17:56;23.60;3.20
26164;DHT22;13914;48.178;11.716;2023-07-16T02:20:22;23.70;3.60
26164;DHT22;13914;48.178;11.716;2023-07-16T02:22:48;23.60;3.30
26164;DHT22;13914;48.178;11.716;2023-07-16T02:25:13;23.60;4.20
26164;DHT22;13914;48.178;11.716;2023-07-16T02:27:39;23.60;3.40
26164;DHT22;13914;48.178;11.716;2023-07-16T02:30:05;23.50;3.20
26164;DHT22;13914;48.178;11.716;2023-07-16T02:32:32;23.50;3.20
26164;DHT22;13914;48.178;11.716;2023-07-16T02:34:58;23.50;3.00
26164;DHT22;13914;48.178;11.716;2023-07-16T02:37:24;23.40;3.20
26164;DHT22;13914;48.178;11.716;2023-07-16T02:39:50;23.40;3.10
26164;DHT22;13914;48.178;11.716;2023-07-16T02:42:15;23.40;2.90
26164;DHT22;13914;48.178;11.716;2023-07-16T02:44:41;23.40;2.70
26164;DHT22;13914;48.178;11.716;2023-07-16T02:47:13;23.30;2.80
26164;DHT22;13914;48.178;11.716;2023-07-16T02:49:39;23.40;3.00
26164;DHT22;13914;48.178;11.716;2023-07-16T02:52:05;23.30;3.30
26164;DHT22;13914;48.178;11.716;2023-07-16T02:54:31;23.30;3.00
26164;DHT22;13914;48.178;11.716;2023-07-16T02:56:57;23.30;2.90
26164;DHT22;13914;48.178;11.716;2023-07-16T02:59:23;23.30;3.10
26164;DHT22;13914;48.178;11.716;2023-07-16T03:01:49;23.20;3.00
26164;DHT22;13914;48.178;11.716;2023-07-16T03:04:15;23.20;2.70
26164;DHT22;13914;48.178;11.716;2023-07-16T03:06:40;23.20;2.90
26164;DHT22;13914;48.178;11.716;2023-07-16T03:09:06;23.20;2.80
26164;DHT22;13914;48.178;11.716;2023-07-16T03:11:31;23.20;2.80
26164;DHT22;13914;48.178;11.716;2023-07-16T03:13:57;23.10;2.70
26164;DHT22;13914;48.178;11.716;2023-07-16T03:16:23;23.10;2.70
26164;DHT22;13914;48.178;11.716;2023-07-16T03:18:48;23.10;2.90
26164;DHT22;13914;48.178;11.716;2023-07-16T03:21:14;23.10;3.10
26164;DHT22;13914;48.178;11.716;2023-07-16T03:23:40;23.10;2.90
26164;DHT22;13914;48.178;11.716;2023-07-16T03:26:05;23.10;2.90
26164;DHT22;13914;48.178;11.716;2023-07-16T03:28:31;23.00;2.90
26164;DHT22;13914;48.178;11.716;2023-07-16T03:30:57;23.00;3.00
26164;DHT22;13914;48.178;11.716;2023-07-16T03:33:22;23.00;3.70
26164;DHT22;13914;48.178;11.716;2023-07-16T03:35:48;23.00;4.20
26164;DHT22;13914;48.178;11.716;2023-07-16T03:38:14;23.00;4.80
26164;DHT22;13914;48.178;11.716;2023-07-16T03:40:42;22.90;5.10
26164;DHT22;13914;48.178;11.716;2023-07-16T03:43:13;23.00;5.60
26164;DHT22;13914;48.178;11.716;2023-07-16T03:45:39;22.90;5.50
26164;DHT22;13914;48.178;11.716;2023-07-16T03:48:04;22.90;5.90
26164;DHT22;13914;48.178;11.716;2023-07-16T03:50:30;22.80;5.90
26164;DHT22;13914;48.178;11.716;2023-07-16T03:52:56;22.80;5.80
26164;DHT22;13914;48.178;11.716;2023-07-16T03:55:22;22.80;5.40
26164;DHT22;13914;48.178;11.716;2023-07-16T03:57:47;22.80;5.30
26164;DHT22;13914;48.178;11.716;2023-07-16T04:00:13;22.80;5.20
26164;DHT22;13914;48.178;11.716;2023-07-16T04:02:39;22.80;5.20
26164;DHT22;13914;48.178;11.716;2023-07-16T04:05:04;22.70;5.40
26164;DHT22;13914;48.178;11.716;2023-07-16T04:07:31;22.70;5.40
26164;DHT22;13914;48.178;11.716;2023-07-16T04:09:56;22.70;5.80
26164;DHT22;13914;48.178;11.716;2023-07-16T04:12:22;22.70;5.40
26164;DHT22;13914;48.178;11.716;2023-07-16T04:14:47;22.60;5.50
26164;DHT22;13914;48.178;11.716;2023-07-16T04:17:13;22.60;5.60
26164;DHT22;13914;48.178;11.716;2023-07-16T04:19:39;22.60;5.10
26164;DHT22;13914;48.178;11.716;2023-07-16T04:22:04;22.60;5.00
26164;DHT22;13914;48.178;11.716;2023-07-16T04:24:30;22.60;5.10
26164;DHT22;13914;48.178;11.716;2023-07-16T04:26:57;22.60;5.10
26164;DHT22;13914;48.178;11.716;2023-07-16T04:29:23;22.60;5.00
26164;DHT22;13914;48.178;11.716;2023-07-16T04:31:49;22.60;4.70
26164;DHT22;13914;48.178;11.716;2023-07-16T04:34:14;22.60;4.80
26164;DHT22;13914;48.178;11.716;2023-07-16T04:36:41;22.50;4.90
26164;DHT22;13914;48.178;11.716;2023-07-16T04:39:07;22.50;4.50
26164;DHT22;13914;48.178;11.716;2023-07-16T04:41:33;22.50;4.70
26164;DHT22;13914;48.178;11.716;2023-07-16T04:43:59;22.50;4.40
26164;DHT22;13914;48.178;11.716;2023-07-16T04:46:25;22.50;4.40
26164;DHT22;13914;48.178;11.716;2023-07-16T04:48:50;22.50;4.40
26164;DHT22;13914;48.178;11.716;2023-07-16T04:51:16;22.50;4.30
26164;DHT22;13914;48.178;11.716;2023-07-16T04:53:42;22.50;4.30
26164;DHT22;13914;48.178;11.716;2023-07-16T04:56:14;22.50;4.40
26164;DHT22;13914;48.178;11.716;2023-07-16T04:58:40;22.50;4.40
26164;DHT22;13914;48.178;11.716;2023-07-16T05:01:07;22.50;4.40
26164;DHT22;13914;48.178;11.716;2023-07-16T05:03:33;22.50;4.40
26164;DHT22;13914;48.178;11.716;2023-07-16T05:05:58;22.50;4.30
26164;DHT22;13914;48.178;11.716;2023-07-16T05:08:24;22.50;4.30
26164;DHT22;13914;48.178;11.716;2023-07-16T05:10:50;22.40;4.30
26164;DHT22;13914;48.178;11.716;2023-07-16T05:13:15;22.40;4.30
26164;DHT22;13914;48.178;11.716;2023-07-16T05:15:43;22.40;4.50
26164;DHT22;13914;48.178;11.716;2023-07-16T05:18:09;22.40;5.10
26164;DHT22;13914;48.178;11.716;2023-07-16T05:20:34;22.40;4.50
26164;DHT22;13914;48.178;11.716;2023-07-16T05:23:00;22.40;4.50
26164;DHT22;13914;48.178;11.716;2023-07-16T05:25:26;22.40;4.50
26164;DHT22;13914;48.178;11.716;2023-07-16T05:27:51;22.40;4.50
26164;DHT22;13914;48.178;11.716;2023-07-16T05:30:17;22.30;4.40
26164;DHT22;13914;48.178;11.716;2023-07-16T05:32:43;22.30;4.50
26164;DHT22;13914;48.178;11.716;2023-07-16T05:35:08;22.30;4.40
26164;DHT22;13914;48.178;11.716;2023-07-16T05:37:34;22.30;4.50
26164;DHT22;13914;48.178;11.716;2023-07-16T05:40:00;22.20;4.50
26164;DHT22;13914;48.178;11.716;2023-07-16T05:42:25;22.30;4.50
26164;DHT22;13914;48.178;11.716;2023-07-16T05:44:53;22.30;4.50
26164;DHT22;13914;48.178;11.716;2023-07-16T05:47:19;22.20;4.60
26164;DHT22;13914;48.178;11.716;2023-07-16T05:49:44;22.20;4.60
26164;DHT22;13914;48.178;11.716;2023-07-16T05:52:10;22.20;4.60
26164;DHT22;13914;48.178;11.716;2023-07-16T05:54:36;22.20;4.80
26164;DHT22;13914;48.178;11.716;2023-07-16T05:57:01;22.20;4.70
26164;DHT22;13914;48.178;11.716;2023-07-16T05:59:27;22.20;4.90
26164;DHT22;13914;48.178;11.716;2023-07-16T06:01:53;22.20;4.70
26164;DHT22;13914;48.178;11.716;2023-07-16T06:04:18;22.10;4.80
26164;DHT22;13914;48.178;11.716;2023-07-16T06:06:44;22.10;4.80
26164;DHT22;13914;48.178;11.716;2023-07-16T06:09:10;22.10;4.80
26164;DHT22;13914;48.178;11.716;2023-07-16T06:11:35;22.10;5.00
26164;DHT22;13914;48.178;11.716;2023-07-16T06:14:01;22.10;5.10
26164;DHT22;13914;48.178;11.716;2023-07-16T06:16:26;22.10;4.90
26164;DHT22;13914;48.178;11.716;2023-07-16T06:18:52;22.10;5.00
26164;DHT22;13914;48.178;11.716;2023-07-16T06:21:18;22.10;5.00
26164;DHT22;13914;48.178;11.716;2023-07-16T06:23:43;22.10;5.20
26164;DHT22;13914;48.178;11.716;2023-07-16T06:26:09;22.10;5.20
26164;DHT22;13914;48.178;11.716;2023-07-16T06:28:35;22.10;5.40
26164;DHT22;13914;48.178;11.716;2023-07-16T06:31:00;22.10;6.30
26164;DHT22;13914;48.178;11.716;2023-07-16T06:33:26;22.10;5.80
26164;DHT22;13914;48.178;11.716;2023-07-16T06:35:53;22.10;5.50
26164;DHT22;13914;48.178;11.716;2023-07-16T06:38:19;22.10;5.60
26164;DHT22;13914;48.178;11.716;2023-07-16T06:40:47;22.10;5.90
26164;DHT22;13914;48.178;11.716;2023-07-16T06:43:14;22.10;5.80
26164;DHT22;13914;48.178;11.716;2023-07-16T06:45:40;22.10;5.60
26164;DHT22;13914;48.178;11.716;2023-07-16T06:48:06;22.20;5.50
26164;DHT22;13914;48.178;11.716;2023-07-16T06:50:32;22.10;5.40
26164;DHT22;13914;48.178;11.716;2023-07-16T06:52:57;22.20;5.50
26164;DHT22;13914;48.178;11.716;2023-07-16T06:55:23;22.10;5.40
26164;DHT22;13914;48.178;11.716;2023-07-16T06:57:49;22.20;5.50
26164;DHT22;13914;48.178;11.716;2023-07-16T07:00:14;22.20;5.40
26164;DHT22;13914;48.178;11.716;2023-07-16T07:02:40;22.20;5.40
26164;DHT22;13914;48.178;11.716;2023-07-16T07:05:07;22.20;5.30
26164;DHT22;13914;48.178;11.716;2023-07-16T07:07:32;22.20;5.20
26164;DHT22;13914;48.178;11.716;2023-07-16T07:09:58;22.20;5.00
26164;DHT22;13914;48.178;11.716;2023-07-16T07:12:24;22.30;5.20
26164;DHT22;13914;48.178;11.716;2023-07-16T07:14:49;22.30;5.10
26164;DHT22;13914;48.178;11.716;2023-07-16T07:17:15;22.30;5.30
26164;DHT22;13914;48.178;11.716;2023-07-16T07:19:41;22.40;5.50
26164;DHT22;13914;48.178;11.716;2023-07-16T07:22:07;22.40;5.40
26164;DHT22;13914;48.178;11.716;2023-07-16T07:24:32;22.40;5.40
26164;DHT22;13914;48.178;11.716;2023-07-16T07:26:58;22.50;5.40
26164;DHT22;13914;48.178;11.716;2023-07-16T07:29:24;22.50;5.40
26164;DHT22;13914;48.178;11.716;2023-07-16T07:31:50;22.50;5.40
26164;DHT22;13914;48.178;11.716;2023-07-16T07:34:15;22.50;5.30
26164;DHT22;13914;48.178;11.716;2023-07-16T07:36:41;22.60;5.30
26164;DHT22;13914;48.178;11.716;2023-07-16T07:39:07;22.60;5.30
26164;DHT22;13914;48.178;11.716;2023-07-16T07:41:33;22.70;5.40
26164;DHT22;13914;48.178;11.716;2023-07-16T07:43:58;22.70;5.40
26164;DHT22;13914;48.178;11.716;2023-07-16T07:46:24;22.80;5.60
26164;DHT22;13914;48.178;11.716;2023-07-16T07:48:50;22.80;5.60
26164;DHT22;13914;48.178;11.716;2023-07-16T07:51:15;22.90;5.50
26164;DHT22;13914;48.178;11.716;2023-07-16T07:53:41;22.90;5.50
26164;DHT22;13914;48.178;11.716;2023-07-16T07:56:07;22.90;5.60
26164;DHT22;13914;48.178;11.716;2023-07-16T07:58:32;23.00;5.50
26164;DHT22;13914;48.178;11.716;2023-07-16T08:01:05;23.00;5.40
26164;DHT22;13914;48.178;11.716;2023-07-16T08:03:31;23.00;5.30
26164;DHT22;13914;48.178;11.716;2023-07-16T08:05:57;23.00;5.20
26164;DHT22;13914;48.178;11.716;2023-07-16T08:08:22;23.10;5.30
26164;DHT22;13914;48.178;11.716;2023-07-16T08:10:48;23.10;5.30
26164;DHT22;13914;48.178;11.716;2023-07-16T08:13:14;23.10;5.20
26164;DHT22;13914;48.178;11.716;2023-07-16T08:15:39;23.20;5.20
26164;DHT22;13914;48.178;11.716;2023-07-16T08:18:05;23.10;4.90
26164;DHT22;13914;48.178;11.716;2023-07-16T08:20:30;23.20;4.90
26164;DHT22;13914;48.178;11.716;2023-07-16T08:22:56;23.20;4.80
26164;DHT22;13914;48.178;11.716;2023-07-16T08:25:22;23.20;4.90
26164;DHT22;13914;48.178;11.716;2023-07-16T08:27:48;23.30;5.10
26164;DHT22;13914;48.178;11.716;2023-07-16T08:30:13;23.30;4.90
26164;DHT22;13914;48.178;11.716;2023-07-16T08:32:39;23.30;5.60
26164;DHT22;13914;48.178;11.716;2023-07-16T08:35:05;23.30;5.40
26164;DHT22;13914;48.178;11.716;2023-07-16T08:37:31;23.30;6.40
26164;DHT22;13914;48.178;11.716;2023-07-16T08:39:57;23.40;5.80
26164;DHT22;13914;48.178;11.716;2023-07-16T08:42:22;23.40;5.70
26164;DHT22;13914;48.178;11.716;2023-07-16T08:44:49;23.40;5.80
26164;DHT22;13914;48.178;11.716;2023-07-16T08:47:17;23.40;5.70
26164;DHT22;13914;48.178;11.716;2023-07-16T08:49:47;23.40;6.30
26164;DHT22;13914;48.178;11.716;2023-07-16T08:52:23;23.50;5.60
26164;DHT22;13914;48.178;11.716;2023-07-16T08:54:48;23.50;5.60
26164;DHT22;13914;48.178;11.716;2023-07-16T08:57:14;23.50;5.60
26164;DHT22;13914;48.178;11.716;2023-07-16T08:59:40;23.60;5.80
26164;DHT22;13914;48.178;11.716;2023-07-16T09:02:06;23.60;5.90
26164;DHT22;13914;48.178;11.716;2023-07-16T09:04:32;23.70;6.00
26164;DHT22;13914;48.178;11.716;2023-07-16T09:06:58;23.70;5.70
26164;DHT22;13914;48.178;11.716;2023-07-16T09:09:23;23.80;5.40
26164;DHT22;13914;48.178;11.716;2023-07-16T09:11:49;23.90;5.20
26164;DHT22;13914;48.178;11.716;2023-07-16T09:14:19;24.00;5.30
26164;DHT22;13914;48.178;11.716;2023-07-16T09:16:51;24.10;5.10
26164;DHT22;13914;48.178;11.716;2023-07-16T09:19:17;24.20;4.90
26164;DHT22;13914;48.178;11.716;2023-07-16T09:21:47;24.30;5.40
26164;DHT22;13914;48.178;11.716;2023-07-16T09:24:13;24.40;5.10
26164;DHT22;13914;48.178;11.716;2023-07-16T09:26:47;24.50;4.60
26164;DHT22;13914;48.178;11.716;2023-07-16T09:29:16;24.60;4.70
26164;DHT22;13914;48.178;11.716;2023-07-16T09:32:00;24.70;4.40
26164;DHT22;13914;48.178;11.716;2023-07-16T09:34:28;24.80;4.40
26164;DHT22;13914;48.178;11.716;2023-07-16T09:44:11;25.30;4.00
26164;DHT22;13914;48.178;11.716;2023-07-16T09:46:38;25.40;3.90
26164;DHT22;13914;48.178;11.716;2023-07-16T09:49:04;25.50;3.80
26164;DHT22;13914;48.178;11.716;2023-07-16T09:51:30;25.70;4.20
26164;DHT22;13914;48.178;11.716;2023-07-16T09:53:57;25.80;3.90
26164;DHT22;13914;48.178;11.716;2023-07-16T09:56:27;25.90;3.90
26164;DHT22;13914;48.178;11.716;2023-07-16T09:59:22;26.00;3.80
26164;DHT22;13914;48.178;11.716;2023-07-16T10:01:49;26.20;4.10
26164;DHT22;13914;48.178;11.716;2023-07-16T10:04:16;26.40;3.70
26164;DHT22;13914;48.178;11.716;2023-07-16T10:09:38;26.70;3.20
26164;DHT22;13914;48.178;11.716;2023-07-16T10:14:39;26.90;3.00
26164;DHT22;13914;48.178;11.716;2023-07-16T10:17:06;27.10;3.20
26164;DHT22;13914;48.178;11.716;2023-07-16T10:19:45;27.20;2.90
26164;DHT22;13914;48.178;11.716;2023-07-16T10:22:14;27.40;2.90
26164;DHT22;13914;48.178;11.716;2023-07-16T10:24:40;27.60;2.10
26164;DHT22;13914;48.178;11.716;2023-07-16T10:27:06;27.70;2.30
26164;DHT22;13914;48.178;11.716;2023-07-16T10:29:32;27.80;2.40
26164;DHT22;13914;48.178;11.716;2023-07-16T10:31:58;27.90;2.40
26164;DHT22;13914;48.178;11.716;2023-07-16T10:34:24;28.00;2.10
26164;DHT22;13914;48.178;11.716;2023-07-16T10:36:50;28.20;1.80
26164;DHT22;13914;48.178;11.716;2023-07-16T10:45:22;28.40;2.00
26164;DHT22;13914;48.178;11.716;2023-07-16T10:47:54;28.50;1.90
26164;DHT22;13914;48.178;11.716;2023-07-16T10:50:21;28.60;1.80
26164;DHT22;13914;48.178;11.716;2023-07-16T10:52:50;28.60;1.00
26164;DHT22;13914;48.178;11.716;2023-07-16T10:55:17;28.70;1.00
26164;DHT22;13914;48.178;11.716;2023-07-16T10:57:43;28.70;1.00
26164;DHT22;13914;48.178;11.716;2023-07-16T11:00:09;28.80;1.00
26164;DHT22;13914;48.178;11.716;2023-07-16T11:02:38;28.70;1.00
26164;DHT22;13914;48.178;11.716;2023-07-16T11:05:05;28.70;1.00
26164;DHT22;13914;48.178;11.716;2023-07-16T11:07:34;28.70;1.00
26164;DHT22;13914;48.178;11.716;2023-07-16T11:10:00;28.70;1.00
26164;DHT22;13914;48.178;11.716;2023-07-16T11:12:28;28.70;1.00
26164;DHT22;13914;48.178;11.716;2023-07-16T11:14:54;28.80;1.00
26164;DHT22;13914;48.178;11.716;2023-07-16T11:17:21;28.80;1.00
26164;DHT22;13914;48.178;11.716;2023-07-16T11:19:50;28.80;1.00
26164;DHT22;13914;48.178;11.716;2023-07-16T11:22:16;28.90;1.00
26164;DHT22;13914;48.178;11.716;2023-07-16T11:24:43;28.90;1.00
26164;DHT22;13914;48.178;11.716;2023-07-16T11:27:19;28.90;1.00
26164;DHT22;13914;48.178;11.716;2023-07-16T11:32:13;29.00;1.00
26164;DHT22;13914;48.178;11.716;2023-07-16T11:34:51;29.10;1.00
26164;DHT22;13914;48.178;11.716;2023-07-16T11:37:17;29.10;1.00
26164;DHT22;13914;48.178;11.716;2023-07-16T11:39:43;29.20;1.00
26164;DHT22;13914;48.178;11.716;2023-07-16T11:42:09;29.20;1.00
26164;DHT22;13914;48.178;11.716;2023-07-16T11:44:34;29.20;1.00
26164;DHT22;13914;48.178;11.716;2023-07-16T11:47:02;29.20;1.00
26164;DHT22;13914;48.178;11.716;2023-07-16T11:49:28;29.30;1.00
26164;DHT22;13914;48.178;11.716;2023-07-16T11:51:55;29.30;1.00
26164;DHT22;13914;48.178;11.716;2023-07-16T11:54:20;29.30;1.00
26164;DHT22;13914;48.178;11.716;2023-07-16T11:56:46;29.30;1.00
26164;DHT22;13914;48.178;11.716;2023-07-16T11:59:13;29.30;1.00
26164;DHT22;13914;48.178;11.716;2023-07-16T12:01:39;29.40;1.00
26164;DHT22;13914;48.178;11.716;2023-07-16T12:04:04;29.30;1.00
26164;DHT22;13914;48.178;11.716;2023-07-16T12:06:30;29.30;1.00
26164;DHT22;13914;48.178;11.716;2023-07-16T12:08:56;29.30;1.00
26164;DHT22;13914;48.178;11.716;2023-07-16T12:11:21;29.30;1.00
26164;DHT22;13914;48.178;11.716;2023-07-16T12:13:47;29.30;1.00
26164;DHT22;13914;48.178;11.716;2023-07-16T12:16:13;29.40;1.00
26164;DHT22;13914;48.178;11.716;2023-07-16T12:18:39;29.40;1.00
26164;DHT22;13914;48.178;11.716;2023-07-16T12:21:04;29.40;1.00
26164;DHT22;13914;48.178;11.716;2023-07-16T12:23:31;29.50;1.00
26164;DHT22;13914;48.178;11.716;2023-07-16T12:25:57;29.50;1.00
26164;DHT22;13914;48.178;11.716;2023-07-16T12:28:23;29.60;1.00
26164;DHT22;13914;48.178;11.716;2023-07-16T12:30:48;29.70;1.00
26164;DHT22;13914;48.178;11.716;2023-07-16T12:33:14;29.70;1.00
26164;DHT22;13914;48.178;11.716;2023-07-16T12:35:40;29.70;1.00
26164;DHT22;13914;48.178;11.716;2023-07-16T12:38:06;29.80;1.00
26164;DHT22;13914;48.178;11.716;2023-07-16T12:40:32;29.80;1.00
26164;DHT22;13914;48.178;11.716;2023-07-16T12:43:05;29.80;1.00
26164;DHT22;13914;48.178;11.716;2023-07-16T12:45:30;29.80;1.00
26164;DHT22;13914;48.178;11.716;2023-07-16T12:47:56;29.80;1.00
26164;DHT22;13914;48.178;11.716;2023-07-16T12:50:22;29.80;1.00
26164;DHT22;13914;48.178;11.716;2023-07-16T12:52:48;29.80;1.00
26164;DHT22;13914;48.178;11.716;2023-07-16T12:55:14;29.80;1.00
26164;DHT22;13914;48.178;11.716;2023-07-16T12:57:40;29.80;1.00
26164;DHT22;13914;48.178;11.716;2023-07-16T13:00:06;29.80;1.00
26164;DHT22;13914;48.178;11.716;2023-07-16T13:02:35;29.80;1.00
26164;DHT22;13914;48.178;11.716;2023-07-16T13:05:01;29.80;1.00
26164;DHT22;13914;48.178;11.716;2023-07-16T13:07:26;29.80;1.00
26164;DHT22;13914;48.178;11.716;2023-07-16T13:09:52;29.80;1.00
26164;DHT22;13914;48.178;11.716;2023-07-16T13:12:17;29.80;1.00
26164;DHT22;13914;48.178;11.716;2023-07-16T13:14:43;29.70;1.00
26164;DHT22;13914;48.178;11.716;2023-07-16T13:17:09;29.80;1.00
26164;DHT22;13914;48.178;11.716;2023-07-16T13:19:35;29.70;1.00
26164;DHT22;13914;48.178;11.716;2023-07-16T13:22:01;29.70;1.00
26164;DHT22;13914;48.178;11.716;2023-07-16T13:24:26;29.70;1.00
26164;DHT22;13914;48.178;11.716;2023-07-16T13:26:52;29.60;1.00
26164;DHT22;13914;48.178;11.716;2023-07-16T13:29:18;29.60;1.00
26164;DHT22;13914;48.178;11.716;2023-07-16T13:31:44;29.50;1.00
26164;DHT22;13914;48.178;11.716;2023-07-16T13:34:09;29.50;1.00
26164;DHT22;13914;48.178;11.716;2023-07-16T13:36:35;29.40;1.00
26164;DHT22;13914;48.178;11.716;2023-07-16T13:39:01;29.40;1.00
26164;DHT22;13914;48.178;11.716;2023-07-16T13:41:26;29.40;1.00
26164;DHT22;13914;48.178;11.716;2023-07-16T13:43:52;29.30;1.00
26164;DHT22;13914;48.178;11.716;2023-07-16T13:46:18;29.30;1.00
26164;DHT22;13914;48.178;11.716;2023-07-16T13:48:44;29.30;1.00
26164;DHT22;13914;48.178;11.716;2023-07-16T13:51:09;29.20;1.00
26164;DHT22;13914;48.178;11.716;2023-07-16T13:53:35;29.20;1.00
26164;DHT22;13914;48.178;11.716;2023-07-16T13:56:02;29.10;1.00
26164;DHT22;13914;48.178;11.716;2023-07-16T13:58:28;29.10;1.00
26164;DHT22;13914;48.178;11.716;2023-07-16T14:00:53;29.10;1.00
26164;DHT22;13914;48.178;11.716;2023-07-16T14:03:19;29.10;1.00
26164;DHT22;13914;48.178;11.716;2023-07-16T14:05:45;29.10;1.00
26164;DHT22;13914;48.178;11.716;2023-07-16T14:08:10;29.00;1.00
26164;DHT22;13914;48.178;11.716;2023-07-16T14:10:36;29.00;1.00
26164;DHT22;13914;48.178;11.716;2023-07-16T14:13:01;29.00;1.00
26164;DHT22;13914;48.178;11.716;2023-07-16T14:15:27;28.90;1.00
26164;DHT22;13914;48.178;11.716;2023-07-16T14:17:53;28.90;1.00
26164;DHT22;13914;48.178;11.716;2023-07-16T14:20:19;28.90;1.00
26164;DHT22;13914;48.178;11.716;2023-07-16T14:22:45;28.80;1.00
26164;DHT22;13914;48.178;11.716;2023-07-16T14:25:10;28.80;1.00
26164;DHT22;13914;48.178;11.716;2023-07-16T14:27:36;28.80;1.00
26164;DHT22;13914;48.178;11.716;2023-07-16T14:30:02;28.80;1.00
26164;DHT22;13914;48.178;11.716;2023-07-16T14:32:27;28.80;1.00
26164;DHT22;13914;48.178;11.716;2023-07-16T14:34:54;28.70;1.00
26164;DHT22;13914;48.178;11.716;2023-07-16T14:37:20;28.70;1.00
26164;DHT22;13914;48.178;11.716;2023-07-16T14:39:45;28.70;1.00
26164;DHT22;13914;48.178;11.716;2023-07-16T14:42:11;28.60;1.00
26164;DHT22;13914;48.178;11.716;2023-07-16T14:44:36;28.60;1.00
26164;DHT22;13914;48.178;11.716;2023-07-16T14:47:02;28.60;1.00
26164;DHT22;13914;48.178;11.716;2023-07-16T14:49:29;28.50;1.00
26164;DHT22;13914;48.178;11.716;2023-07-16T14:51:55;28.60;1.00
26164;DHT22;13914;48.178;11.716;2023-07-16T14:54:20;28.50;1.00
26164;DHT22;13914;48.178;11.716;2023-07-16T14:56:46;28.50;1.00
26164;DHT22;13914;48.178;11.716;2023-07-16T14:59:13;28.50;1.00
26164;DHT22;13914;48.178;11.716;2023-07-16T15:01:38;28.40;1.00
26164;DHT22;13914;48.178;11.716;2023-07-16T15:04:04;28.40;1.00
26164;DHT22;13914;48.178;11.716;2023-07-16T15:06:30;28.40;1.00
26164;DHT22;13914;48.178;11.716;2023-07-16T15:08:55;28.40;1.00
26164;DHT22;13914;48.178;11.716;2023-07-16T15:11:21;28.30;1.10
26164;DHT22;13914;48.178;11.716;2023-07-16T15:13:47;28.30;1.00
26164;DHT22;13914;48.178;11.716;2023-07-16T15:16:12;28.30;1.10
26164;DHT22;13914;48.178;11.716;2023-07-16T15:18:39;28.30;1.20
26164;DHT22;13914;48.178;11.716;2023-07-16T15:21:05;28.30;1.20
26164;DHT22;13914;48.178;11.716;2023-07-16T15:23:30;28.20;1.20
26164;DHT22;13914;48.178;11.716;2023-07-16T15:26:01;28.20;1.20
26164;DHT22;13914;48.178;11.716;2023-07-16T15:28:28;28.20;1.40
26164;DHT22;13914;48.178;11.716;2023-07-16T15:30:56;28.20;1.40
26164;DHT22;13914;48.178;11.716;2023-07-16T15:33:22;28.10;1.30
26164;DHT22;13914;48.178;11.716;2023-07-16T15:35:48;28.10;1.30
26164;DHT22;13914;48.178;11.716;2023-07-16T15:38:13;28.10;1.30
26164;DHT22;13914;48.178;11.716;2023-07-16T15:40:39;28.10;1.50
26164;DHT22;13914;48.178;11.716;2023-07-16T15:43:05;28.10;1.60
26164;DHT22;13914;48.178;11.716;2023-07-16T15:45:30;28.10;1.50
26164;DHT22;13914;48.178;11.716;2023-07-16T15:47:56;28.00;1.40
26164;DHT22;13914;48.178;11.716;2023-07-16T15:50:25;28.00;1.50
26164;DHT22;13914;48.178;11.716;2023-07-16T15:52:51;28.00;1.40